createdAt,value
2022-11-19T00:03:49.869Z,6.50
2022-11-19T00:14:36.681Z,6.40
2022-11-19T00:19:58.289Z,7.10
2022-11-19T00:25:21.412Z,8.70
2022-11-19T00:30:50.382Z,8.70
2022-11-19T00:36:14.313Z,7.80
2022-11-19T00:41:36.333Z,8.00
2022-11-19T00:46:58.342Z,9.70
2022-11-19T00:52:20.456Z,6.80
2022-11-19T00:57:42.430Z,8.20
2022-11-19T01:03:04.535Z,6.30
2022-11-19T01:08:27.172Z,6.20
2022-11-19T01:13:49.201Z,7.60
2022-11-19T01:19:11.627Z,7.30
2022-11-19T01:24:33.570Z,8.30
2022-11-19T01:29:55.286Z,7.40
2022-11-19T01:35:17.254Z,8.00
2022-11-19T01:40:43.719Z,9.00
2022-11-19T01:46:05.653Z,11.30
2022-11-19T01:51:30.747Z,9.70
2022-11-19T01:56:58.287Z,13.50
2022-11-19T02:02:20.610Z,16.40
2022-11-19T02:07:48.465Z,10.30
2022-11-19T02:13:41.635Z,8.60
2022-11-19T02:19:15.890Z,14.30
2022-11-19T02:24:54.491Z,10.60
2022-11-19T02:30:18.465Z,10.70
2022-11-19T02:36:00.295Z,7.20
2022-11-19T02:41:37.081Z,7.00
2022-11-19T02:46:59.707Z,7.90
2022-11-19T02:52:22.025Z,7.70
2022-11-19T02:57:48.298Z,7.60
2022-11-19T03:03:35.600Z,9.50
2022-11-19T03:08:57.529Z,9.90
2022-11-19T03:14:53.379Z,12.40
2022-11-19T03:21:01.599Z,38.30
2022-11-19T03:26:36.243Z,14.10
2022-11-19T03:32:03.893Z,15.20
2022-11-19T03:37:28.133Z,20.80
2022-11-19T03:42:52.668Z,9.40
2022-11-19T03:48:16.005Z,8.10
2022-11-19T03:53:37.832Z,8.60
2022-11-19T03:59:00.464Z,9.70
2022-11-19T04:04:40.456Z,9.60
2022-11-19T04:10:02.487Z,7.70
2022-11-19T04:15:24.518Z,7.80
2022-11-19T04:20:46.248Z,8.60
2022-11-19T04:26:08.174Z,7.80
2022-11-19T04:31:29.972Z,9.70
2022-11-19T04:36:51.798Z,10.40
2022-11-19T04:42:13.789Z,11.10
2022-11-19T04:47:35.634Z,10.70
2022-11-19T04:52:59.226Z,9.60
2022-11-19T04:58:20.954Z,9.40
2022-11-19T05:03:42.884Z,10.40
2022-11-19T05:09:04.913Z,10.30
2022-11-19T05:14:30.273Z,10.20
2022-11-19T05:19:52.986Z,9.10
2022-11-19T05:25:14.815Z,10.40
2022-11-19T05:30:36.860Z,10.30
2022-11-19T05:35:58.876Z,10.60
2022-11-19T05:41:20.810Z,10.50
2022-11-19T05:46:42.707Z,11.80
2022-11-19T05:52:05.014Z,10.40
2022-11-19T05:57:27.007Z,11.50
2022-11-19T06:02:48.892Z,9.40
2022-11-19T06:08:10.778Z,14.20
2022-11-19T06:13:32.784Z,10.50
2022-11-19T06:18:55.313Z,13.70
2022-11-19T06:24:17.724Z,11.10
2022-11-19T06:29:39.774Z,15.50
2022-11-19T06:35:01.879Z,9.30
2022-11-19T06:40:23.833Z,9.90
2022-11-19T06:45:45.763Z,13.80
2022-11-19T06:51:08.059Z,11.30
2022-11-19T06:56:30.022Z,8.60
2022-11-19T07:01:51.977Z,7.40
2022-11-19T07:07:13.713Z,12.90
2022-11-19T07:12:35.723Z,11.00
2022-11-19T07:17:58.247Z,11.80
2022-11-19T07:23:20.732Z,20.60
2022-11-19T07:28:42.904Z,11.70
2022-11-19T07:34:09.061Z,11.80
2022-11-19T07:39:30.741Z,9.30
2022-11-19T07:44:55.005Z,11.30
2022-11-19T07:50:17.783Z,12.00
2022-11-19T07:55:39.576Z,20.40
2022-11-19T08:01:18.443Z,12.70
2022-11-19T08:12:01.848Z,11.80
2022-11-19T08:17:42.385Z,12.00
2022-11-19T08:23:05.353Z,13.50
2022-11-19T08:28:27.880Z,12.50
2022-11-19T08:33:49.681Z,11.30
2022-11-19T08:39:12.139Z,11.20
2022-11-19T08:44:33.999Z,8.60
2022-11-19T08:49:56.135Z,11.60
2022-11-19T08:55:17.970Z,11.10
2022-11-19T09:00:39.673Z,9.60
2022-11-19T09:06:01.687Z,13.10
2022-11-19T09:11:23.920Z,11.60
2022-11-19T09:16:45.476Z,9.70
2022-11-19T09:22:07.423Z,10.30
2022-11-19T09:27:30.171Z,10.40
2022-11-19T09:32:52.233Z,9.50
2022-11-19T09:38:13.896Z,9.50
2022-11-19T09:43:54.848Z,25.90
2022-11-19T09:49:42.788Z,9.50
2022-11-19T09:55:05.757Z,9.60
2022-11-19T10:00:30.355Z,9.70
2022-11-19T10:06:16.187Z,8.60
2022-11-19T10:11:46.807Z,7.90
2022-11-19T10:17:30.630Z,9.20
2022-11-19T10:23:31.466Z,10.10
2022-11-19T10:28:57.748Z,12.60
2022-11-19T10:34:35.095Z,8.20
2022-11-19T10:40:04.610Z,13.00
2022-11-19T10:45:28.757Z,11.70
2022-11-19T10:50:51.958Z,16.30
2022-11-19T10:56:23.270Z,9.50
2022-11-19T11:01:48.154Z,11.10
2022-11-19T11:07:10.952Z,15.60
2022-11-19T11:12:51.179Z,21.20
2022-11-19T11:18:15.207Z,13.60
2022-11-19T11:23:48.543Z,11.50
2022-11-19T11:29:13.136Z,8.60
2022-11-19T11:34:43.426Z,7.70
2022-11-19T11:40:06.516Z,18.80
2022-11-19T11:45:33.727Z,8.50
2022-11-19T11:50:55.671Z,21.40
2022-11-19T11:56:21.248Z,9.50
2022-11-19T12:01:53.973Z,12.50
2022-11-19T12:07:32.317Z,8.40
2022-11-19T12:13:32.223Z,8.80
2022-11-19T12:19:03.213Z,9.90
2022-11-19T12:24:33.739Z,13.10
2022-11-19T12:30:07.839Z,10.30
2022-11-19T12:36:07.444Z,11.70
2022-11-19T12:41:47.741Z,9.00
2022-11-19T12:47:16.638Z,25.40
2022-11-19T12:52:57.250Z,15.00
2022-11-19T12:58:42.259Z,10.10
2022-11-19T13:04:16.125Z,9.30
2022-11-19T13:09:55.126Z,12.50
2022-11-19T13:20:56.985Z,10.90
2022-11-19T13:26:30.062Z,14.70
2022-11-19T13:32:03.835Z,10.70
2022-11-19T13:37:57.984Z,33.10
2022-11-19T13:43:40.631Z,17.90
2022-11-19T13:49:21.948Z,20.20
2022-11-19T13:54:45.343Z,17.10
2022-11-19T14:00:18.927Z,15.90
2022-11-19T14:05:58.988Z,23.60
2022-11-19T14:11:39.917Z,14.60
2022-11-19T14:17:33.475Z,12.60
2022-11-19T14:23:14.955Z,17.80
2022-11-19T14:28:41.983Z,16.30
2022-11-19T14:34:04.540Z,17.30
2022-11-19T14:39:31.781Z,14.60
2022-11-19T14:45:06.054Z,15.20
2022-11-19T14:50:28.888Z,22.10
2022-11-19T14:55:53.826Z,21.90
2022-11-19T15:01:21.095Z,22.60
2022-11-19T15:06:44.276Z,20.30
2022-11-19T15:12:06.125Z,28.30
2022-11-19T15:17:29.074Z,27.70
2022-11-19T15:23:13.014Z,31.30
2022-11-19T15:29:08.883Z,31.60
2022-11-19T15:35:09.836Z,40.50
2022-11-19T15:40:34.121Z,45.10
2022-11-19T15:46:10.309Z,92.20
2022-11-19T15:51:38.855Z,70.80
2022-11-19T15:57:13.837Z,56.80
2022-11-19T16:02:38.715Z,39.70
2022-11-19T16:08:06.577Z,61.10
2022-11-19T16:13:47.163Z,75.20
2022-11-19T16:19:09.255Z,89.40
2022-11-19T16:24:50.748Z,94.70
2022-11-19T16:30:20.706Z,104.60
2022-11-19T16:35:42.585Z,89.60
2022-11-19T16:41:23.833Z,98.40
2022-11-19T16:46:45.932Z,114.30
2022-11-19T16:52:08.093Z,96.80
2022-11-19T16:57:30.651Z,93.80
2022-11-19T17:02:52.655Z,82.10
2022-11-19T17:08:31.851Z,70.00
2022-11-19T17:13:53.721Z,78.60
2022-11-19T17:19:20.978Z,69.30
2022-11-19T17:24:45.923Z,72.40
2022-11-19T17:30:10.825Z,77.80
2022-11-19T17:35:37.886Z,76.90
2022-11-19T17:41:01.199Z,72.10
2022-11-19T17:46:24.717Z,83.80
2022-11-19T17:51:46.611Z,67.80
2022-11-19T17:57:08.776Z,60.90
2022-11-19T18:02:31.708Z,83.80
2022-11-19T18:07:55.069Z,62.10
2022-11-19T18:13:21.489Z,73.70
2022-11-19T18:18:43.219Z,61.50
2022-11-19T18:24:05.458Z,57.60
2022-11-19T18:29:31.297Z,45.10
2022-11-19T18:34:52.982Z,46.10
2022-11-19T18:40:15.753Z,48.60
2022-11-19T18:45:37.380Z,61.10
2022-11-19T18:50:59.511Z,55.80
2022-11-19T18:56:21.741Z,51.50
2022-11-19T19:01:43.609Z,68.30
2022-11-19T19:07:05.782Z,59.10
2022-11-19T19:12:27.553Z,65.80
2022-11-19T19:17:49.156Z,69.80
2022-11-19T19:23:11.406Z,67.90
2022-11-19T19:28:33.017Z,62.10
2022-11-19T19:33:55.152Z,60.30
2022-11-19T19:39:16.876Z,69.70
2022-11-19T19:44:38.743Z,59.70
2022-11-19T19:50:00.834Z,51.50
2022-11-19T19:55:22.365Z,65.60
2022-11-19T20:00:44.518Z,65.20
2022-11-19T20:06:07.689Z,73.00
2022-11-19T20:11:29.777Z,62.40
2022-11-19T20:16:51.885Z,78.10
2022-11-19T20:22:13.582Z,89.20
2022-11-19T20:27:35.612Z,95.10
2022-11-19T20:32:57.682Z,94.40
2022-11-19T20:38:20.405Z,100.80
2022-11-19T20:44:00.353Z,134.20
2022-11-19T20:49:28.348Z,126.10
2022-11-19T20:54:51.482Z,116.00
2022-11-19T21:00:14.415Z,122.70
2022-11-19T21:05:36.043Z,121.70
2022-11-19T21:11:03.862Z,119.00
2022-11-19T21:16:26.325Z,126.30
2022-11-19T21:21:48.456Z,115.70
2022-11-19T21:27:10.593Z,108.30
2022-11-19T21:32:32.314Z,123.40
2022-11-19T21:37:54.142Z,113.30
2022-11-19T21:43:16.674Z,93.70
2022-11-19T21:48:39.305Z,110.50
2022-11-19T21:54:00.912Z,92.10
2022-11-19T21:59:23.245Z,102.30
2022-11-19T22:04:45.150Z,87.80
2022-11-19T22:10:07.624Z,91.20
2022-11-19T22:15:29.515Z,96.80
2022-11-19T22:21:02.975Z,97.90
2022-11-19T22:26:25.464Z,98.60
2022-11-19T22:31:47.185Z,121.40
2022-11-19T22:37:09.213Z,111.20
2022-11-19T22:42:30.843Z,129.40
2022-11-19T22:47:53.232Z,79.80
2022-11-19T22:53:17.310Z,91.90
2022-11-19T22:58:39.340Z,105.20
2022-11-19T23:04:06.040Z,105.10
2022-11-19T23:09:27.747Z,113.70
2022-11-19T23:14:49.607Z,122.20
2022-11-19T23:20:12.042Z,133.20
2022-11-19T23:25:33.603Z,123.50
2022-11-19T23:30:55.833Z,85.40
2022-11-19T23:36:20.471Z,65.70
2022-11-19T23:41:43.102Z,72.20
2022-11-19T23:47:06.791Z,70.30
2022-11-19T23:52:28.502Z,74.40
2022-11-19T23:57:50.396Z,72.90
